This is the latest recevied weather packets stored in our database for station/object IV3CGM-13. If no packets are shown the sender has not sent any weather packets the latest 1 day(s).
| Time | Temp. | Humidity | Pressure | Rain* | Wind** | Luminosity | Snow |
|---|---|---|---|---|---|---|---|
| 1777997103 | 12.22° C | 98% | 1013.6 hPa | 0.51 mm | 0 m/s | 45 W/m² | - |
| 1777996416 | 12.22° C | 96% | 1013.6 hPa | 0.51 mm | 0 m/s | 47 W/m² | - |
| 1777995729 | 12.22° C | 97% | 1013.6 hPa | 0.76 mm | 0.89 m/s, 210° | 52 W/m² | - |
| 1777995041 | 11.67° C | 96% | 1013.7 hPa | 0.76 mm | 0 m/s | 63 W/m² | - |
| 1777994305 | 11.67° C | 96% | 1013.7 hPa | 1.27 mm | 0.89 m/s, 246° | 78 W/m² | - |
| 1777993603 | 11.67° C | 96% | 1013.7 hPa | 1.52 mm | 0.89 m/s, 246° | 61 W/m² | - |
| 1777992916 | 11.67° C | 97% | 1013.8 hPa | 2.03 mm | 0.89 m/s, 246° | 59 W/m² | - |
| 1777992228 | 11.67° C | 97% | 1013.9 hPa | 2.03 mm | 0.89 m/s, 234° | 54 W/m² | - |
| 1777991540 | 11.67° C | 95% | 1013.9 hPa | 2.03 mm | 0 m/s | 70 W/m² | - |
| 1777990804 | 11.67° C | 95% | 1014 hPa | 1.27 mm | 0 m/s | 82 W/m² | - |
| 1777990103 | 11.67° C | 95% | 1014.1 hPa | 1.27 mm | 0.89 m/s, 240° | 69 W/m² | - |
| 1777989415 | 11.67° C | 94% | 1014.1 hPa | 0.76 mm | 0.89 m/s, 192° | 101 W/m² | - |
| 1777988728 | 11.67° C | 92% | 1014.3 hPa | 0.76 mm | 0.89 m/s, 174° | 69 W/m² | - |
| 1777988041 | 12.22° C | 92% | 1014.2 hPa | 1.27 mm | 1.34 m/s, 156° | 50 W/m² | - |
| 1777987353 | 12.22° C | 94% | 1014.1 hPa | 1.52 mm | 1.34 m/s, 174° | 42 W/m² | - |
| 1777986666 | 12.22° C | 92% | 1014.2 hPa | 1.52 mm | 0.89 m/s, 180° | 91 W/m² | - |
| 1777985991 | 12.78° C | 93% | 1014.2 hPa | 2.03 mm | 1.79 m/s, 162° | 139 W/m² | - |
| 1777985290 | 12.78° C | 92% | 1014.3 hPa | 1.52 mm | 2.24 m/s, 216° | 93 W/m² | - |
| 1777984603 | 12.78° C | 93% | 1014.3 hPa | 1.27 mm | 2.24 m/s, 210° | 154 W/m² | - |
| 1777983915 | 12.78° C | 93% | 1014.4 hPa | 1.52 mm | 1.79 m/s, 102° | 132 W/m² | - |
| 1777983227 | 13.33° C | 93% | 1014.4 hPa | 1.27 mm | 2.24 m/s, 90° | 54 W/m² | - |
| 1777982490 | 13.89° C | 91% | 1014.4 hPa | 1.27 mm | 0 m/s | 98 W/m² | - |
| 1777981789 | 13.89° C | 88% | 1014.4 hPa | 1.27 mm | 0.89 m/s, 309° | 158 W/m² | - |
| 1777981101 | 13.89° C | 93% | 1014.4 hPa | 1.27 mm | 0 m/s | 126 W/m² | - |
| 1777980414 | 13.89° C | 93% | 1014.4 hPa | 0.76 mm | 0.89 m/s, 306° | 78 W/m² | - |
* Rain latest hour (hover to see other rain measurements)
** Current wind speed in m/s (hover to see current wind gust speed)